createdAt,value
2017-09-03T00:00:26.826Z,101093.77
2017-09-03T00:02:55.141Z,101093.73
2017-09-03T00:05:23.441Z,101085.91
2017-09-03T00:07:51.768Z,101084.27
2017-09-03T00:10:20.086Z,101084.47
2017-09-03T00:12:48.404Z,101074.55
2017-09-03T00:15:16.700Z,101078.84
2017-09-03T00:17:45.266Z,101081.34
2017-09-03T00:20:13.577Z,101076.23
2017-09-03T00:22:41.902Z,101076.44
2017-09-03T00:25:10.214Z,101075.66
2017-09-03T00:27:38.537Z,101080.11
2017-09-03T00:30:06.849Z,101082.25
2017-09-03T00:32:35.161Z,101079.69
2017-09-03T00:35:04.150Z,101092.00
2017-09-03T00:37:32.477Z,101090.36
2017-09-03T00:40:00.782Z,101084.34
2017-09-03T00:42:29.112Z,101088.81
2017-09-03T00:44:57.443Z,101085.11
2017-09-03T00:47:25.741Z,101076.84
2017-09-03T00:49:54.041Z,101077.98
2017-09-03T00:52:22.346Z,101070.56
2017-09-03T00:54:50.664Z,101065.17
2017-09-03T00:57:18.968Z,101061.95
2017-09-03T00:59:47.285Z,101065.49
2017-09-03T01:02:15.588Z,101064.79
2017-09-03T01:04:43.901Z,101045.03
2017-09-03T01:07:12.201Z,101063.38
2017-09-03T01:09:40.530Z,101065.89
2017-09-03T01:12:08.834Z,101056.80
2017-09-03T01:14:37.150Z,101057.86
2017-09-03T01:17:05.449Z,101052.34
2017-09-03T01:19:33.765Z,101047.70
2017-09-03T01:22:02.073Z,101053.39
2017-09-03T01:24:30.421Z,101048.95
2017-09-03T01:26:58.733Z,101049.05
2017-09-03T01:29:27.035Z,101038.48
2017-09-03T01:31:55.348Z,101041.45
2017-09-03T01:34:23.641Z,101036.52
2017-09-03T01:36:51.957Z,101035.50
2017-09-03T01:39:20.253Z,101039.05
2017-09-03T01:41:48.640Z,101044.16
2017-09-03T01:44:16.938Z,101037.36
2017-09-03T01:46:45.254Z,101034.52
2017-09-03T01:49:13.572Z,101027.11
2017-09-03T01:51:41.884Z,101032.86
2017-09-03T01:54:10.208Z,101028.03
2017-09-03T01:56:38.517Z,101027.23
2017-09-03T01:59:06.824Z,101028.75
2017-09-03T02:01:35.137Z,101030.37
2017-09-03T02:04:03.448Z,101030.79
2017-09-03T02:06:31.781Z,101031.17
2017-09-03T02:09:00.084Z,101031.33
2017-09-03T02:11:28.397Z,101025.89
2017-09-03T02:13:56.709Z,101033.42
2017-09-03T02:16:25.012Z,101031.03
2017-09-03T02:18:53.337Z,101036.20
2017-09-03T02:21:21.646Z,101031.59
2017-09-03T02:23:49.976Z,101025.02
2017-09-03T02:26:18.274Z,101030.03
2017-09-03T02:28:46.580Z,101027.70
2017-09-03T02:31:14.882Z,101027.84
2017-09-03T02:33:43.200Z,101029.23
2017-09-03T02:36:11.500Z,101034.36
2017-09-03T02:38:39.834Z,101031.23
2017-09-03T02:41:08.154Z,101032.67
2017-09-03T02:43:36.473Z,101035.12
2017-09-03T02:46:04.752Z,101033.17
2017-09-03T02:48:33.073Z,101027.84
2017-09-03T02:51:01.372Z,101025.80
2017-09-03T02:53:29.734Z,101028.03
2017-09-03T02:55:58.008Z,101034.52
2017-09-03T02:58:26.296Z,101013.05
2017-09-03T03:00:54.601Z,101030.75
2017-09-03T03:03:22.900Z,101032.30
2017-09-03T03:05:51.276Z,101031.50
2017-09-03T03:08:19.592Z,101033.45
2017-09-03T03:10:47.906Z,101036.09
2017-09-03T03:13:16.210Z,101029.91
2017-09-03T03:15:44.526Z,101021.39
2017-09-03T03:18:12.821Z,101026.84
2017-09-03T03:20:41.136Z,101023.00
2017-09-03T03:23:09.434Z,101027.94
2017-09-03T03:25:37.740Z,101024.94
2017-09-03T03:28:06.030Z,101022.48
2017-09-03T03:30:34.324Z,101022.69
2017-09-03T03:33:02.618Z,101024.59
2017-09-03T03:35:30.912Z,101023.01
2017-09-03T03:37:59.202Z,101016.23
2017-09-03T03:40:27.496Z,101021.26
2017-09-03T03:42:55.789Z,101014.21
2017-09-03T03:45:24.101Z,101008.68
2017-09-03T03:47:52.395Z,101011.56
2017-09-03T03:50:20.690Z,101013.94
2017-09-03T03:52:48.992Z,101010.22
2017-09-03T03:55:17.280Z,101011.17
2017-09-03T03:57:45.581Z,101003.91
2017-09-03T04:00:13.946Z,101005.77
2017-09-03T04:02:42.274Z,100994.44
2017-09-03T04:05:10.589Z,100993.61
2017-09-03T04:07:38.925Z,100991.55
2017-09-03T04:10:07.216Z,100995.48
2017-09-03T04:12:35.529Z,100997.66
2017-09-03T04:15:03.819Z,101001.08
2017-09-03T04:17:32.114Z,100998.36
2017-09-03T04:20:00.413Z,100990.27
2017-09-03T04:22:28.708Z,100997.11
2017-09-03T04:24:57.006Z,100993.67
2017-09-03T04:27:25.340Z,100990.67
2017-09-03T04:29:53.638Z,100992.55
2017-09-03T04:32:21.923Z,100981.11
2017-09-03T04:34:50.237Z,100984.91
2017-09-03T04:37:18.529Z,100985.22
2017-09-03T04:39:46.844Z,100985.13
2017-09-03T04:42:15.136Z,100990.96
2017-09-03T04:44:43.441Z,100989.59
2017-09-03T04:47:11.733Z,100987.84
2017-09-03T04:49:40.084Z,100984.09
2017-09-03T04:52:08.372Z,100982.84
2017-09-03T04:54:36.680Z,100978.37
2017-09-03T04:57:04.969Z,100981.98
2017-09-03T04:59:33.275Z,100985.96
2017-09-03T05:02:01.577Z,100994.19
2017-09-03T05:04:29.879Z,100995.31
2017-09-03T05:06:58.240Z,100992.70
2017-09-03T05:09:26.540Z,100995.59
2017-09-03T05:11:54.998Z,100996.59
2017-09-03T05:14:23.312Z,100994.83
2017-09-03T05:16:51.617Z,100994.97
2017-09-03T05:19:19.914Z,100992.53
2017-09-03T05:21:48.701Z,100994.42
2017-09-03T05:24:17.001Z,100995.12
2017-09-03T05:26:45.306Z,100996.20
2017-09-03T05:29:13.608Z,100996.75
2017-09-03T05:31:41.923Z,100988.73
2017-09-03T05:34:10.227Z,100989.33
2017-09-03T05:36:38.529Z,100994.19
2017-09-03T05:39:06.838Z,100999.08
2017-09-03T05:41:35.158Z,100991.19
2017-09-03T05:44:03.470Z,100993.17
2017-09-03T05:46:31.791Z,100990.22
2017-09-03T05:49:00.106Z,100997.66
2017-09-03T05:51:28.421Z,100995.03
2017-09-03T05:53:56.741Z,100992.73
2017-09-03T05:56:25.073Z,100999.11
2017-09-03T05:58:53.370Z,100992.52
2017-09-03T06:01:21.697Z,100997.20
2017-09-03T06:03:50.006Z,100987.14
2017-09-03T06:06:18.302Z,100991.81
2017-09-03T06:08:46.609Z,100981.52
2017-09-03T06:11:14.900Z,100991.21
2017-09-03T06:13:43.208Z,100975.92
2017-09-03T06:16:11.529Z,100974.24
2017-09-03T06:18:39.837Z,100974.38
2017-09-03T06:21:08.148Z,100984.98
2017-09-03T06:23:36.461Z,100987.75
2017-09-03T06:26:04.755Z,100987.04
2017-09-03T06:28:33.087Z,100988.27
2017-09-03T06:31:01.958Z,100986.42
2017-09-03T06:33:30.271Z,100987.77
2017-09-03T06:35:59.133Z,100994.97
2017-09-03T06:38:27.449Z,100994.06
2017-09-03T06:40:55.761Z,100991.19
2017-09-03T06:43:24.066Z,100993.53
2017-09-03T06:45:52.385Z,100993.10
2017-09-03T06:48:20.684Z,100996.20
2017-09-03T06:50:48.994Z,100995.26
2017-09-03T06:53:17.297Z,101006.27
2017-09-03T06:55:45.633Z,101001.17
2017-09-03T06:58:13.953Z,101005.86
2017-09-03T07:00:42.257Z,101014.00
2017-09-03T07:03:10.568Z,101008.38
2017-09-03T07:05:38.870Z,101012.14
2017-09-03T07:08:07.176Z,101011.30
2017-09-03T07:10:35.479Z,101007.94
2017-09-03T07:13:03.818Z,101014.17
2017-09-03T07:15:32.117Z,101008.39
2017-09-03T07:18:00.420Z,101011.00
2017-09-03T07:20:28.721Z,101008.92
2017-09-03T07:22:57.055Z,101013.01
2017-09-03T07:25:25.349Z,101016.95
2017-09-03T07:27:53.654Z,101016.85
2017-09-03T07:30:21.965Z,101011.70
2017-09-03T07:32:50.266Z,101007.91
2017-09-03T07:35:18.570Z,101018.89
2017-09-03T07:37:46.885Z,101010.59
2017-09-03T07:40:15.197Z,101017.91
2017-09-03T07:42:43.539Z,101017.62
2017-09-03T07:45:11.845Z,101015.60
2017-09-03T07:47:40.189Z,101016.37
2017-09-03T07:50:08.528Z,101011.56
2017-09-03T07:52:36.824Z,101017.88
2017-09-03T07:55:05.142Z,101021.97
2017-09-03T07:57:33.513Z,101013.70
2017-09-03T08:00:01.801Z,101012.98
2017-09-03T08:02:30.109Z,101012.00
2017-09-03T08:04:58.451Z,101021.09
2017-09-03T08:07:27.131Z,101017.58
2017-09-03T08:09:55.429Z,101015.70
2017-09-03T08:12:23.776Z,101018.34
2017-09-03T08:14:52.068Z,101010.75
2017-09-03T08:17:20.362Z,101018.31
2017-09-03T08:19:48.707Z,101014.52
2017-09-03T08:22:17.052Z,101008.77
2017-09-03T08:24:45.369Z,101013.63
2017-09-03T08:27:13.673Z,101006.63
2017-09-03T08:29:42.003Z,101009.32
2017-09-03T08:32:10.303Z,101001.98
2017-09-03T08:34:38.659Z,101000.14
2017-09-03T08:37:06.978Z,101001.07
2017-09-03T08:39:35.277Z,101002.89
2017-09-03T08:42:03.613Z,101003.05
2017-09-03T08:44:31.901Z,101004.93
2017-09-03T08:47:00.208Z,101001.08
2017-09-03T08:49:28.514Z,101008.67
2017-09-03T08:51:56.826Z,101002.19
2017-09-03T08:54:25.124Z,100999.71
2017-09-03T08:56:53.454Z,100998.94
2017-09-03T08:59:21.782Z,100997.16
2017-09-03T09:01:50.428Z,100983.44
2017-09-03T09:04:18.786Z,100990.13
2017-09-03T09:06:47.091Z,100987.22
2017-09-03T09:09:15.421Z,100987.39
2017-09-03T09:11:43.729Z,100985.15
2017-09-03T09:14:12.042Z,100982.13
2017-09-03T09:16:40.336Z,100974.91
2017-09-03T09:19:08.652Z,100984.06
2017-09-03T09:21:36.966Z,100978.75
2017-09-03T09:24:05.286Z,100976.20
2017-09-03T09:26:33.592Z,100983.95
2017-09-03T09:29:01.929Z,100977.48
2017-09-03T09:31:30.246Z,100981.41
2017-09-03T09:33:58.545Z,100977.14
2017-09-03T09:36:26.860Z,100979.36
2017-09-03T09:38:55.161Z,100972.19
2017-09-03T09:41:23.471Z,100970.86
2017-09-03T09:43:51.764Z,100971.32
2017-09-03T09:46:20.072Z,100969.51
2017-09-03T09:48:48.388Z,100974.08
2017-09-03T09:51:16.688Z,100964.27
2017-09-03T09:53:44.996Z,100970.41
2017-09-03T09:56:13.306Z,100981.03
2017-09-03T09:58:41.608Z,100969.66
2017-09-03T10:01:09.907Z,100972.13
2017-09-03T10:03:38.229Z,100967.98
2017-09-03T10:06:06.535Z,100968.73
2017-09-03T10:08:35.186Z,100969.31
2017-09-03T10:11:03.494Z,100960.55
2017-09-03T10:13:31.793Z,100957.65
2017-09-03T10:16:00.730Z,100956.44
2017-09-03T10:18:29.032Z,100963.02
2017-09-03T10:20:57.341Z,100965.31
2017-09-03T10:23:25.652Z,100961.78
2017-09-03T10:25:54.006Z,100961.20
2017-09-03T10:28:22.322Z,100963.92
2017-09-03T10:30:50.628Z,100957.66
2017-09-03T10:33:18.961Z,100958.82
2017-09-03T10:35:47.265Z,100956.80
2017-09-03T10:38:15.571Z,100954.21
2017-09-03T10:40:43.865Z,100955.33
2017-09-03T10:43:12.184Z,100951.62
2017-09-03T10:45:40.496Z,100943.08
2017-09-03T10:48:08.806Z,100938.09
2017-09-03T10:50:37.135Z,100938.64
2017-09-03T10:53:05.443Z,100933.78
2017-09-03T10:55:33.765Z,100930.52
2017-09-03T10:58:02.081Z,100933.28
2017-09-03T11:00:31.216Z,100926.09
2017-09-03T11:02:59.542Z,100927.54
2017-09-03T11:05:27.871Z,100925.02
2017-09-03T11:07:56.166Z,100925.57
2017-09-03T11:10:24.475Z,100921.80
2017-09-03T11:12:53.687Z,100920.43
2017-09-03T11:15:21.999Z,100916.23
2017-09-03T11:17:51.329Z,100906.16
2017-09-03T11:20:19.620Z,100907.59
2017-09-03T11:22:47.921Z,100900.36
2017-09-03T11:25:16.211Z,100895.38
2017-09-03T11:27:44.577Z,100904.48
2017-09-03T11:30:12.874Z,100902.09
2017-09-03T11:32:41.209Z,100889.43
2017-09-03T11:35:09.527Z,100892.56
2017-09-03T11:37:37.837Z,100895.53
2017-09-03T11:40:06.137Z,100891.47
2017-09-03T11:42:34.434Z,100885.17
2017-09-03T11:45:02.762Z,100883.34
2017-09-03T11:47:31.064Z,100883.53
2017-09-03T11:49:59.372Z,100880.58
2017-09-03T11:52:27.695Z,100879.73
2017-09-03T11:54:56.025Z,100876.78
2017-09-03T11:57:24.348Z,100867.04
2017-09-03T11:59:52.652Z,100868.33
2017-09-03T12:02:20.957Z,100866.45
2017-09-03T12:04:49.254Z,100860.64
2017-09-03T12:07:17.574Z,100857.19
2017-09-03T12:09:45.881Z,100854.73
2017-09-03T12:12:14.194Z,100856.52
2017-09-03T12:14:42.488Z,100853.35
2017-09-03T12:17:10.813Z,100855.44
2017-09-03T12:19:39.129Z,100853.20
2017-09-03T12:22:07.430Z,100859.86
2017-09-03T12:24:35.754Z,100861.83
2017-09-03T12:27:04.059Z,100875.66
2017-09-03T12:29:32.377Z,100872.12
2017-09-03T12:32:00.686Z,100859.94
2017-09-03T12:34:28.996Z,100847.34
2017-09-03T12:36:57.347Z,100846.05
2017-09-03T12:39:25.682Z,100842.16
2017-09-03T12:41:53.982Z,100844.29
2017-09-03T12:44:22.272Z,100850.60
2017-09-03T12:46:50.581Z,100854.27
2017-09-03T12:49:18.887Z,100855.72
2017-09-03T12:51:47.249Z,100856.31
2017-09-03T12:54:15.549Z,100850.77
2017-09-03T12:56:43.860Z,100860.39
2017-09-03T12:59:12.148Z,100852.81
2017-09-03T13:01:42.697Z,100851.27
2017-09-03T13:04:10.996Z,100848.47
2017-09-03T13:06:39.318Z,100847.91
2017-09-03T13:09:07.626Z,100835.55
2017-09-03T13:11:35.929Z,100841.91
2017-09-03T13:14:04.235Z,100831.56
2017-09-03T13:16:32.536Z,100827.48
2017-09-03T13:19:00.849Z,100824.52
2017-09-03T13:21:29.144Z,100827.73
2017-09-03T13:23:57.453Z,100823.36
2017-09-03T13:26:25.746Z,100822.25
2017-09-03T13:28:54.088Z,100816.74
2017-09-03T13:31:22.388Z,100813.06
2017-09-03T13:33:50.692Z,100813.50
2017-09-03T13:36:19.002Z,100818.56
2017-09-03T13:38:47.316Z,100821.84
2017-09-03T13:41:15.633Z,100817.61
2017-09-03T13:43:43.929Z,100809.91
2017-09-03T13:46:12.346Z,100816.71
2017-09-03T13:48:40.645Z,100809.20
2017-09-03T13:51:08.973Z,100806.95
2017-09-03T13:53:37.323Z,100805.63
2017-09-03T13:56:05.621Z,100805.52
2017-09-03T13:58:33.942Z,100806.67
2017-09-03T14:01:02.238Z,100806.46
2017-09-03T14:03:30.549Z,100805.97
2017-09-03T14:05:58.858Z,100801.19
2017-09-03T14:08:27.168Z,100803.28
2017-09-03T14:10:55.509Z,100799.64
2017-09-03T14:13:23.822Z,100792.41
2017-09-03T14:15:52.120Z,100796.52
2017-09-03T14:18:20.458Z,100798.85
2017-09-03T14:20:48.752Z,100794.95
2017-09-03T14:23:17.951Z,100791.98
2017-09-03T14:25:46.314Z,100786.89
2017-09-03T14:28:14.637Z,100779.70
2017-09-03T14:30:42.948Z,100787.88
2017-09-03T14:33:11.248Z,100779.45
2017-09-03T14:35:39.558Z,100774.86
2017-09-03T14:38:07.856Z,100777.33
2017-09-03T14:40:36.197Z,100763.31
2017-09-03T14:43:04.506Z,100770.54
2017-09-03T14:45:32.797Z,100768.50
2017-09-03T14:48:01.121Z,100771.10
2017-09-03T14:50:29.428Z,100769.27
2017-09-03T14:52:57.751Z,100762.11
2017-09-03T14:55:26.989Z,100759.33
2017-09-03T14:57:55.288Z,100762.84
2017-09-03T15:00:23.591Z,100761.00
2017-09-03T15:02:51.967Z,100761.34
2017-09-03T15:05:20.285Z,100762.72
2017-09-03T15:07:48.595Z,100758.74
2017-09-03T15:10:16.948Z,100763.51
2017-09-03T15:12:45.261Z,100760.08
2017-09-03T15:15:13.570Z,100753.83
2017-09-03T15:17:41.873Z,100752.77
2017-09-03T15:20:10.226Z,100755.43
2017-09-03T15:22:38.530Z,100754.02
2017-09-03T15:25:06.866Z,100750.60
2017-09-03T15:27:35.259Z,100756.80
2017-09-03T15:30:03.558Z,100751.39
2017-09-03T15:32:31.861Z,100752.53
2017-09-03T15:35:00.157Z,100740.50
2017-09-03T15:37:28.480Z,100748.41
2017-09-03T15:39:56.786Z,100748.09
2017-09-03T15:42:25.100Z,100738.97
2017-09-03T15:44:53.425Z,100732.82
2017-09-03T15:47:21.724Z,100733.86
2017-09-03T15:49:50.026Z,100734.73
2017-09-03T15:52:18.355Z,100728.13
2017-09-03T15:54:46.646Z,100737.97
2017-09-03T15:57:14.955Z,100733.55
2017-09-03T15:59:43.270Z,100728.21
2017-09-03T16:02:11.573Z,100734.63
2017-09-03T16:04:39.878Z,100739.94
2017-09-03T16:07:08.184Z,100733.78
2017-09-03T16:09:36.494Z,100740.62
2017-09-03T16:12:04.789Z,100737.55
2017-09-03T16:14:33.095Z,100736.61
2017-09-03T16:17:01.393Z,100734.95
2017-09-03T16:19:29.725Z,100736.68
2017-09-03T16:21:58.022Z,100736.87
2017-09-03T16:24:26.321Z,100729.21
2017-09-03T16:26:54.629Z,100732.94
2017-09-03T16:29:22.921Z,100731.19
2017-09-03T16:31:51.229Z,100726.14
2017-09-03T16:34:19.523Z,100732.73
2017-09-03T16:36:47.836Z,100729.67
2017-09-03T16:39:16.131Z,100731.55
2017-09-03T16:41:44.446Z,100731.69
2017-09-03T16:44:12.749Z,100730.09
2017-09-03T16:46:41.055Z,100728.48
2017-09-03T16:49:09.370Z,100720.09
2017-09-03T16:51:37.681Z,100724.69
2017-09-03T16:54:05.994Z,100726.52
2017-09-03T16:56:34.297Z,100723.65
2017-09-03T16:59:02.618Z,100728.58
2017-09-03T17:01:30.924Z,100725.73
2017-09-03T17:03:59.228Z,100731.73
2017-09-03T17:06:27.539Z,100729.56
2017-09-03T17:08:55.853Z,100736.72
2017-09-03T17:11:24.148Z,100736.73
2017-09-03T17:13:52.513Z,100742.95
2017-09-03T17:16:20.819Z,100743.13
2017-09-03T17:18:49.128Z,100740.67
2017-09-03T17:21:17.440Z,100740.59
2017-09-03T17:23:45.741Z,100745.78
2017-09-03T17:26:14.054Z,100741.83
2017-09-03T17:28:42.353Z,100747.57
2017-09-03T17:31:10.671Z,100755.08
2017-09-03T17:33:38.973Z,100754.45
2017-09-03T17:36:07.580Z,100756.45
2017-09-03T17:38:37.604Z,100760.89
2017-09-03T17:44:11.029Z,100765.49
2017-09-03T17:46:40.850Z,100769.36
2017-09-03T17:49:09.198Z,100768.17
2017-09-03T17:51:37.518Z,100769.98
2017-09-03T17:54:05.810Z,100767.11
2017-09-03T17:56:34.100Z,100768.63
2017-09-03T17:59:02.401Z,100773.42
2017-09-03T18:01:30.704Z,100772.90
2017-09-03T18:03:59.013Z,100773.69
2017-09-03T18:06:27.305Z,100774.52
2017-09-03T18:08:55.625Z,100775.16
2017-09-03T18:11:23.925Z,100773.23
2017-09-03T18:13:52.255Z,100775.83
2017-09-03T18:16:20.572Z,100770.75
2017-09-03T18:18:48.864Z,100772.64
2017-09-03T18:21:17.164Z,100780.67
2017-09-03T18:23:45.474Z,100788.31
2017-09-03T18:26:13.784Z,100788.30
2017-09-03T18:28:43.876Z,100787.72
2017-09-03T18:31:14.502Z,100782.33
2017-09-03T18:33:42.808Z,100784.73
2017-09-03T18:36:15.448Z,100788.78
2017-09-03T18:38:45.961Z,100794.44
2017-09-03T18:41:30.009Z,100798.08
2017-09-03T18:43:59.589Z,100790.99
2017-09-03T18:46:27.884Z,100792.83
2017-09-03T18:48:56.193Z,100793.20
2017-09-03T18:54:38.009Z,100802.50
2017-09-03T18:57:06.350Z,100801.19
2017-09-03T18:59:34.809Z,100804.95
2017-09-03T19:02:03.123Z,100797.92
2017-09-03T19:04:32.677Z,100797.45
2017-09-03T19:07:01.010Z,100798.75
2017-09-03T19:09:29.317Z,100798.52
2017-09-03T19:11:57.633Z,100798.82
2017-09-03T19:14:25.953Z,100798.78
2017-09-03T19:16:54.244Z,100798.06
2017-09-03T19:19:22.566Z,100798.64
2017-09-03T19:21:50.857Z,100809.49
2017-09-03T19:24:19.170Z,100804.91
2017-09-03T19:26:47.489Z,100808.69
2017-09-03T19:29:15.814Z,100803.42
2017-09-03T19:31:44.140Z,100798.84
2017-09-03T19:34:12.463Z,100793.70
2017-09-03T19:36:42.073Z,100801.27
2017-09-03T19:39:10.766Z,100804.77
2017-09-03T19:41:39.088Z,100800.81
2017-09-03T19:44:07.388Z,100797.22
2017-09-03T19:46:35.682Z,100801.59
2017-09-03T19:49:04.005Z,100799.01
2017-09-03T19:51:32.325Z,100808.91
2017-09-03T19:54:00.642Z,100807.73
2017-09-03T19:56:28.948Z,100803.72
2017-09-03T19:58:57.257Z,100804.55
2017-09-03T20:01:25.570Z,100806.69
2017-09-03T20:03:53.876Z,100803.85
2017-09-03T20:06:22.177Z,100804.39
2017-09-03T20:08:50.490Z,100802.13
2017-09-03T20:11:18.793Z,100805.45
2017-09-03T20:13:47.117Z,100796.80
2017-09-03T20:16:15.438Z,100795.54
2017-09-03T20:18:43.788Z,100794.57
2017-09-03T20:21:12.100Z,100794.80
2017-09-03T20:23:40.396Z,100798.93
2017-09-03T20:26:08.719Z,100796.17
2017-09-03T20:28:37.024Z,100795.47
2017-09-03T20:31:05.337Z,100798.09
2017-09-03T20:33:33.986Z,100797.84
2017-09-03T20:36:02.339Z,100795.61
2017-09-03T20:38:30.729Z,100786.12
2017-09-03T20:40:59.092Z,100782.39
2017-09-03T20:43:27.385Z,100787.17
2017-09-03T20:45:55.698Z,100783.52
2017-09-03T20:48:24.013Z,100786.05
2017-09-03T20:50:52.350Z,100785.94
2017-09-03T20:53:20.660Z,100789.21
2017-09-03T20:55:48.969Z,100786.48
2017-09-03T20:58:17.281Z,100790.31
2017-09-03T21:00:45.579Z,100788.89
2017-09-03T21:03:13.916Z,100793.78
2017-09-03T21:05:42.228Z,100790.00
2017-09-03T21:08:10.541Z,100793.98
2017-09-03T21:10:38.929Z,100789.81
2017-09-03T21:13:07.266Z,100792.06
2017-09-03T21:15:35.602Z,100789.91
2017-09-03T21:18:03.909Z,100785.11
2017-09-03T21:20:32.234Z,100790.15
2017-09-03T21:23:00.538Z,100785.87
2017-09-03T21:25:28.864Z,100784.77
2017-09-03T21:27:57.490Z,100782.77
2017-09-03T21:30:25.820Z,100784.66
2017-09-03T21:32:54.148Z,100780.86
2017-09-03T21:35:22.481Z,100782.35
2017-09-03T21:37:50.805Z,100775.55
2017-09-03T21:40:19.136Z,100772.41
2017-09-03T21:42:47.462Z,100773.84
2017-09-03T21:45:15.768Z,100775.56
2017-09-03T21:47:44.077Z,100774.73
2017-09-03T21:50:12.372Z,100769.50
2017-09-03T21:52:40.682Z,100773.04
2017-09-03T21:55:08.992Z,100769.21
2017-09-03T21:57:37.317Z,100768.84
2017-09-03T22:00:05.609Z,100768.63
2017-09-03T22:02:33.900Z,100766.98
2017-09-03T22:05:02.209Z,100763.39
2017-09-03T22:07:30.509Z,100763.00
2017-09-03T22:09:58.822Z,100756.48
2017-09-03T22:12:27.128Z,100753.19
2017-09-03T22:14:55.445Z,100761.17
2017-09-03T22:17:23.752Z,100756.55
2017-09-03T22:19:52.064Z,100760.48
2017-09-03T22:22:20.389Z,100755.67
2017-09-03T22:24:48.701Z,100766.50
2017-09-03T22:27:17.029Z,100763.75
2017-09-03T22:29:45.332Z,100762.11
2017-09-03T22:32:13.636Z,100764.19
2017-09-03T22:34:41.939Z,100757.27
2017-09-03T22:37:10.244Z,100753.73
2017-09-03T22:39:38.548Z,100753.95
2017-09-03T22:42:06.885Z,100759.80
2017-09-03T22:44:35.899Z,100756.25
2017-09-03T22:47:04.206Z,100757.20
2017-09-03T22:49:32.513Z,100753.79
2017-09-03T22:52:00.809Z,100757.69
2017-09-03T22:54:29.116Z,100760.34
2017-09-03T22:56:57.409Z,100758.44
2017-09-03T22:59:25.746Z,100756.25
2017-09-03T23:01:54.048Z,100757.74
2017-09-03T23:04:22.364Z,100757.08
2017-09-03T23:06:50.997Z,100761.83
2017-09-03T23:09:19.319Z,100747.98
2017-09-03T23:11:47.641Z,100756.05
2017-09-03T23:14:16.740Z,100750.48
2017-09-03T23:16:45.052Z,100747.42
2017-09-03T23:19:13.360Z,100745.05
2017-09-03T23:21:41.689Z,100747.83
2017-09-03T23:24:10.037Z,100751.63
2017-09-03T23:26:38.361Z,100749.31
2017-09-03T23:29:06.672Z,100746.25
2017-09-03T23:31:34.978Z,100745.91
2017-09-03T23:34:03.276Z,100745.43
2017-09-03T23:36:31.609Z,100749.92
2017-09-03T23:38:59.921Z,100749.10
2017-09-03T23:41:28.221Z,100750.39
2017-09-03T23:43:56.541Z,100742.84
2017-09-03T23:46:24.844Z,100741.28
2017-09-03T23:48:53.173Z,100740.05
2017-09-03T23:51:21.494Z,100745.36
2017-09-03T23:53:49.821Z,100744.44
2017-09-03T23:56:18.125Z,100748.97
2017-09-03T23:58:46.440Z,100745.10
